Time,TemperatureF,DewpointF,PressureIn,WindDirection,WindDirectionDegrees,WindSpeedMPH,WindSpeedGustMPH,Humidity,HourlyPrecipIn,Conditions,Clouds,dailyrainin,SolarRadiationWatts/m^2,SoftwareType,DateUTC
2013-06-26 00:01:00,54.0,52.0,-100.00,NE,51,2.0,6.0,94,0.01,,,0.07,2.000000,,2013-06-26 06:01:00,
2013-06-26 00:11:00,54.0,52.0,-100.00,NE,51,2.0,6.0,94,0.01,,,0.07,2.000000,,2013-06-26 06:11:00,
2013-06-26 00:44:00,53.0,52.0,-100.00,East,97,2.0,5.0,95,0.00,,,0.06,1.000000,,2013-06-26 06:44:00,
2013-06-26 00:53:00,53.0,52.0,-100.00,East,97,2.0,5.0,95,0.00,,,0.06,1.000000,,2013-06-26 06:53:00,
2013-06-26 01:01:00,53.0,52.0,-100.00,East,97,2.0,5.0,95,0.00,,,0.06,1.000000,,2013-06-26 07:01:00,
2013-06-26 01:11:00,53.0,52.0,-100.00,East,97,2.0,5.0,95,0.00,,,0.06,1.000000,,2013-06-26 07:11:00,
2013-06-26 01:43:00,53.0,52.0,-100.00,ENE,71,2.0,5.0,95,0.00,,,0.06,1.000000,,2013-06-26 07:43:00,
2013-06-26 01:53:00,53.0,52.0,-100.00,ENE,71,2.0,5.0,95,0.00,,,0.06,1.000000,,2013-06-26 07:53:00,
2013-06-26 02:01:00,53.0,52.0,-100.00,ENE,71,2.0,5.0,95,0.00,,,0.06,1.000000,,2013-06-26 08:01:00,
2013-06-26 02:11:00,53.0,52.0,-100.00,ENE,71,2.0,5.0,95,0.00,,,0.06,1.000000,,2013-06-26 08:11:00,
2013-06-26 02:43:00,53.0,51.0,-100.00,ENE,66,2.0,5.0,94,0.00,,,0.06,1.000000,,2013-06-26 08:43:00,
2013-06-26 02:53:00,53.0,51.0,-100.00,ENE,66,2.0,5.0,94,0.00,,,0.06,1.000000,,2013-06-26 08:53:00,
2013-06-26 03:01:00,53.0,51.0,-100.00,ENE,66,2.0,5.0,94,0.00,,,0.06,1.000000,,2013-06-26 09:01:00,
2013-06-26 03:11:00,53.0,51.0,-100.00,ENE,66,2.0,5.0,94,0.00,,,0.06,1.000000,,2013-06-26 09:11:00,
2013-06-26 03:43:00,53.0,51.0,-100.00,NNW,341,2.0,4.0,94,0.00,,,0.06,1.000000,,2013-06-26 09:43:00,
2013-06-26 03:53:00,53.0,51.0,-100.00,NNW,341,2.0,4.0,94,0.00,,,0.06,1.000000,,2013-06-26 09:53:00,
2013-06-26 04:01:00,53.0,51.0,-100.00,NNW,341,2.0,4.0,94,0.00,,,0.06,1.000000,,2013-06-26 10:01:00,
2013-06-26 04:12:00,53.0,51.0,-100.00,NNW,341,2.0,4.0,94,0.00,,,0.06,1.000000,,2013-06-26 10:12:00,
2013-06-26 04:34:00,52.0,50.0,-100.00,East,91,1.0,5.0,94,0.00,,,-99.99,1.000000,,2013-06-26 10:34:00,
2013-06-26 04:43:00,52.0,50.0,-100.00,East,91,1.0,5.0,94,0.00,,,-99.99,1.000000,,2013-06-26 10:43:00,
2013-06-26 04:53:00,52.0,50.0,-100.00,East,91,1.0,5.0,94,0.00,,,-99.99,1.000000,,2013-06-26 10:53:00,
2013-06-26 05:02:00,52.0,50.0,-100.00,East,91,1.0,5.0,94,0.00,,,-99.99,1.000000,,2013-06-26 11:02:00,
2013-06-26 05:11:00,52.0,50.0,-100.00,East,91,1.0,5.0,94,0.00,,,-99.99,1.000000,,2013-06-26 11:11:00,
2013-06-26 05:44:00,52.0,50.0,-100.00,SE,132,2.0,4.0,94,0.00,,,0.06,1.000000,,2013-06-26 11:44:00,
2013-06-26 05:52:00,52.0,50.0,-100.00,SE,132,2.0,4.0,94,0.00,,,0.06,1.000000,,2013-06-26 11:52:00,
2013-06-26 06:02:00,52.0,50.0,-100.00,SE,132,2.0,4.0,94,0.00,,,0.06,1.000000,,2013-06-26 12:02:00,
2013-06-26 06:11:00,52.0,50.0,-100.00,SE,132,2.0,4.0,94,0.00,,,0.06,1.000000,,2013-06-26 12:11:00,
2013-06-26 06:43:00,51.0,50.0,-100.00,SSE,156,1.0,6.0,97,0.06,,,0.12,1.000000,,2013-06-26 12:43:00,
2013-06-26 06:52:00,51.0,50.0,-100.00,SSE,156,1.0,6.0,97,0.06,,,0.12,1.000000,,2013-06-26 12:52:00,
2013-06-26 07:02:00,51.0,50.0,-100.00,SSE,156,1.0,6.0,97,0.06,,,0.12,1.000000,,2013-06-26 13:02:00,
2013-06-26 07:11:00,51.0,50.0,-100.00,SSE,156,1.0,6.0,97,0.06,,,0.12,1.000000,,2013-06-26 13:11:00,
2013-06-26 07:43:00,51.0,50.0,-100.00,East,93,2.0,5.0,97,0.01,,,0.13,5.000000,,2013-06-26 13:43:00,
2013-06-26 07:53:00,51.0,50.0,-100.00,East,93,2.0,5.0,97,0.01,,,0.13,5.000000,,2013-06-26 13:53:00,
2013-06-26 08:02:00,51.0,50.0,-100.00,East,93,2.0,5.0,97,0.01,,,0.13,5.000000,,2013-06-26 14:02:00,
2013-06-26 08:11:00,51.0,50.0,-100.00,East,93,2.0,5.0,97,0.01,,,0.13,5.000000,,2013-06-26 14:11:00,
2013-06-26 08:42:00,52.0,51.0,-100.00,East,79,1.0,5.0,97,0.01,,,0.14,22.000000,,2013-06-26 14:42:00,
2013-06-26 08:53:00,52.0,51.0,-100.00,East,79,1.0,5.0,97,0.01,,,0.14,22.000000,,2013-06-26 14:53:00,
2013-06-26 09:02:00,52.0,51.0,-100.00,East,79,1.0,5.0,97,0.01,,,0.14,22.000000,,2013-06-26 15:02:00,
2013-06-26 09:11:00,52.0,51.0,-100.00,East,79,1.0,5.0,97,0.01,,,0.14,22.000000,,2013-06-26 15:11:00,
2013-06-26 09:44:00,53.0,51.0,-100.00,North,10,2.0,6.0,94,0.01,,,-99.99,69.000000,,2013-06-26 15:44:00,
2013-06-26 09:53:00,53.0,51.0,-100.00,North,10,2.0,6.0,94,0.01,,,-99.99,69.000000,,2013-06-26 15:53:00,
2013-06-26 10:01:00,53.0,51.0,-100.00,North,10,2.0,6.0,94,0.01,,,-99.99,69.000000,,2013-06-26 16:01:00,
2013-06-26 10:11:00,53.0,51.0,-100.00,North,10,2.0,6.0,94,0.01,,,-99.99,69.000000,,2013-06-26 16:11:00,
2013-06-26 10:43:00,57.0,53.0,-100.00,North,351,0.0,5.0,86,0.01,,,0.16,191.000000,,2013-06-26 16:43:00,
2013-06-26 10:52:00,57.0,53.0,-100.00,North,351,0.0,5.0,86,0.01,,,0.16,191.000000,,2013-06-26 16:52:00,
2013-06-26 11:01:00,57.0,53.0,-100.00,North,351,0.0,5.0,86,0.01,,,0.16,191.000000,,2013-06-26 17:01:00,
2013-06-26 11:11:00,57.0,53.0,-100.00,North,351,0.0,5.0,86,0.01,,,0.16,191.000000,,2013-06-26 17:11:00,
2013-06-26 11:43:00,60.0,50.0,-100.00,North,359,3.0,8.0,70,0.00,,,0.16,310.000000,,2013-06-26 17:43:00,
2013-06-26 11:52:00,60.0,50.0,-100.00,North,359,3.0,8.0,70,0.00,,,0.16,310.000000,,2013-06-26 17:52:00,
2013-06-26 12:01:00,60.0,50.0,-100.00,North,359,3.0,8.0,70,0.00,,,0.16,310.000000,,2013-06-26 18:01:00,
2013-06-26 12:11:00,60.0,50.0,-100.00,North,359,3.0,8.0,70,0.00,,,0.16,310.000000,,2013-06-26 18:11:00,
2013-06-26 12:43:00,62.0,49.0,-100.00,NE,52,2.0,9.0,63,0.00,,,0.16,277.000000,,2013-06-26 18:43:00,
2013-06-26 12:52:00,62.0,49.0,-100.00,NE,52,2.0,9.0,63,0.00,,,0.16,277.000000,,2013-06-26 18:52:00,
2013-06-26 13:01:00,62.0,49.0,-100.00,NE,52,2.0,9.0,63,0.00,,,0.16,277.000000,,2013-06-26 19:01:00,
2013-06-26 13:11:00,62.0,49.0,-100.00,NE,52,2.0,9.0,63,0.00,,,0.16,277.000000,,2013-06-26 19:11:00,
2013-06-26 13:43:00,67.0,52.0,-100.00,NNW,341,5.0,8.0,58,0.00,,,0.16,573.000000,,2013-06-26 19:43:00,
2013-06-26 13:52:00,67.0,52.0,-100.00,NNW,341,5.0,8.0,58,0.00,,,0.16,573.000000,,2013-06-26 19:52:00,
2013-06-26 14:01:00,67.0,52.0,-100.00,NNW,341,5.0,8.0,58,0.00,,,0.16,573.000000,,2013-06-26 20:01:00,
2013-06-26 14:12:00,67.0,52.0,-100.00,NNW,341,5.0,8.0,58,0.00,,,0.16,573.000000,,2013-06-26 20:12:00,
2013-06-26 14:34:00,61.0,57.0,-100.00,ESE,119,1.0,9.0,87,0.01,,,0.17,157.000000,,2013-06-26 20:34:00,
2013-06-26 14:43:00,61.0,57.0,-100.00,ESE,119,1.0,9.0,87,0.01,,,0.17,157.000000,,2013-06-26 20:43:00,
2013-06-26 14:52:00,61.0,57.0,-100.00,ESE,119,1.0,9.0,87,0.01,,,0.17,157.000000,,2013-06-26 20:52:00,
2013-06-26 15:01:00,61.0,57.0,-100.00,ESE,119,1.0,9.0,87,0.01,,,0.17,157.000000,,2013-06-26 21:01:00,
2013-06-26 15:11:00,61.0,57.0,-100.00,ESE,119,1.0,9.0,87,0.01,,,0.17,157.000000,,2013-06-26 21:11:00,
2013-06-26 15:43:00,59.0,52.0,-100.00,NE,50,3.0,11.0,79,0.04,,,0.21,222.000000,,2013-06-26 21:43:00,
2013-06-26 15:52:00,59.0,52.0,-100.00,NE,50,3.0,11.0,79,0.04,,,0.21,222.000000,,2013-06-26 21:52:00,
2013-06-26 16:01:00,59.0,52.0,-100.00,NE,50,3.0,11.0,79,0.04,,,0.21,222.000000,,2013-06-26 22:01:00,
2013-06-26 16:11:00,59.0,52.0,-100.00,NE,50,3.0,11.0,79,0.04,,,0.21,222.000000,,2013-06-26 22:11:00,
2013-06-26 16:43:00,61.0,51.0,-100.00,NE,38,6.0,12.0,69,0.00,,,0.21,260.000000,,2013-06-26 22:43:00,
2013-06-26 16:52:00,61.0,51.0,-100.00,NE,38,6.0,12.0,69,0.00,,,0.21,260.000000,,2013-06-26 22:52:00,
2013-06-26 17:01:00,61.0,51.0,-100.00,NE,38,6.0,12.0,69,0.00,,,0.21,260.000000,,2013-06-26 23:01:00,
2013-06-26 17:11:00,61.0,51.0,-100.00,NE,38,6.0,12.0,69,0.00,,,0.21,260.000000,,2013-06-26 23:11:00,
2013-06-26 17:43:00,66.0,53.0,-100.00,NNE,20,3.0,8.0,64,0.00,,,0.20,442.000000,,2013-06-26 23:43:00,
2013-06-26 17:53:00,66.0,53.0,-100.00,NNE,20,3.0,8.0,64,0.00,,,0.20,442.000000,,2013-06-26 23:53:00,
2013-06-26 18:01:00,66.0,53.0,-100.00,NNE,20,3.0,8.0,64,0.00,,,0.20,442.000000,,2013-06-27 00:01:00,
2013-06-26 18:11:00,66.0,53.0,-100.00,NNE,20,3.0,8.0,64,0.00,,,0.20,442.000000,,2013-06-27 00:11:00,
2013-06-26 18:43:00,69.0,51.0,-100.00,North,6,5.0,10.0,53,0.00,,,-99.99,647.000000,,2013-06-27 00:43:00,
2013-06-26 18:53:00,69.0,51.0,-100.00,North,6,5.0,10.0,53,0.00,,,-99.99,647.000000,,2013-06-27 00:53:00,
2013-06-26 19:01:00,69.0,51.0,-100.00,North,6,5.0,10.0,53,0.00,,,-99.99,647.000000,,2013-06-27 01:01:00,
2013-06-26 19:11:00,69.0,51.0,-100.00,North,6,5.0,10.0,53,0.00,,,-99.99,647.000000,,2013-06-27 01:11:00,
2013-06-26 19:32:00,63.0,59.0,-100.00,East,94,2.0,9.0,87,0.01,,,0.21,147.000000,,2013-06-27 01:32:00,
2013-06-26 19:43:00,63.0,59.0,-100.00,East,94,2.0,9.0,87,0.01,,,0.21,147.000000,,2013-06-27 01:43:00,
2013-06-26 19:53:00,63.0,59.0,-100.00,East,94,2.0,9.0,87,0.01,,,0.21,147.000000,,2013-06-27 01:53:00,
2013-06-26 20:01:00,63.0,59.0,-100.00,East,94,2.0,9.0,87,0.01,,,0.21,147.000000,,2013-06-27 02:01:00,
2013-06-26 20:11:00,63.0,59.0,-100.00,East,94,2.0,9.0,87,0.01,,,0.21,147.000000,,2013-06-27 02:11:00,
2013-06-26 20:32:00,61.0,59.0,-100.00,WSW,239,2.0,3.0,94,0.02,,,0.21,94.000000,,2013-06-27 02:32:00,
2013-06-26 20:42:00,61.0,59.0,-100.00,WSW,239,2.0,3.0,94,0.02,,,0.21,94.000000,,2013-06-27 02:42:00,
2013-06-26 20:52:00,61.0,59.0,-100.00,WSW,239,2.0,3.0,94,0.02,,,0.21,94.000000,,2013-06-27 02:52:00,
2013-06-26 21:01:00,61.0,59.0,-100.00,WSW,239,2.0,3.0,94,0.02,,,0.21,94.000000,,2013-06-27 03:01:00,
2013-06-26 21:11:00,61.0,59.0,-100.00,WSW,239,2.0,3.0,94,0.02,,,0.21,94.000000,,2013-06-27 03:11:00,
2013-06-26 21:33:00,61.0,59.0,-100.00,SW,230,0.0,4.0,94,0.01,,,0.20,70.000000,,2013-06-27 03:33:00,
2013-06-26 21:42:00,61.0,59.0,-100.00,SW,230,0.0,4.0,94,0.01,,,0.20,70.000000,,2013-06-27 03:42:00,
2013-06-26 21:52:00,61.0,59.0,-100.00,SW,230,0.0,4.0,94,0.01,,,0.20,70.000000,,2013-06-27 03:52:00,
2013-06-26 22:01:00,61.0,59.0,-100.00,SW,230,0.0,4.0,94,0.01,,,0.20,70.000000,,2013-06-27 04:01:00,
2013-06-26 22:11:00,61.0,59.0,-100.00,SW,230,0.0,4.0,94,0.01,,,0.20,70.000000,,2013-06-27 04:11:00,
2013-06-26 22:33:00,59.0,58.0,-100.00,South,185,2.0,4.0,95,0.00,,,0.20,17.000000,,2013-06-27 04:33:00,
2013-06-26 22:42:00,59.0,58.0,-100.00,South,185,2.0,4.0,95,0.00,,,0.20,17.000000,,2013-06-27 04:42:00,
2013-06-26 22:52:00,59.0,58.0,-100.00,South,185,2.0,4.0,95,0.00,,,0.20,17.000000,,2013-06-27 04:52:00,
2013-06-26 23:02:00,59.0,58.0,-100.00,South,185,2.0,4.0,95,0.00,,,0.20,17.000000,,2013-06-27 05:02:00,
2013-06-26 23:11:00,59.0,58.0,-100.00,South,185,2.0,4.0,95,0.00,,,0.20,17.000000,,2013-06-27 05:11:00,
2013-06-26 23:32:00,58.0,53.0,-100.00,SW,236,3.0,7.0,82,0.00,,,0.19,2.000000,,2013-06-27 05:32:00,
2013-06-26 23:42:00,58.0,53.0,-100.00,SW,236,3.0,7.0,82,0.00,,,0.19,2.000000,,2013-06-27 05:42:00,
2013-06-26 23:53:00,58.0,53.0,-100.00,SW,236,3.0,7.0,82,0.00,,,0.19,2.000000,,2013-06-27 05:53:00,